Orland, Noorwegen

10:36 PM CET op 18 december 2014 (GMT +0100)
Brekstad | Change Station
CLOSE
Current Station
Persoonlijk weerstation
Location: Orland, Sor-Trondelag
Geometrische hoogte: 21 ft
Nabije weerstations

Hoogte 21 ft 63.70 °N, 9.65 °E | Updated 2 seconds ago

Partly Cloudy
Gedeeltelijk bewolkt
35.6 °F
Voelt als 29 °F
N
7.7
Wind Variabel Wind van west
Gusts 16.8 mijl/u

Vandaag
Hoog -- | Laag -- °F
--% Kans op neerslag
Gisteren
Hoog -- | Laag -- °F
Precip. -- inches
10:06 AM 2:29 PM
Afnemende halvemaan, 12% visible
Druk 29.03 inches
Zicht 6.2 mijlen
Wolken Gering 5200 ft
Gevoelstemperatuur 29 °F
Dauwpunt 17 °F
Vochtigheid 46%
Neerslag 0.00 inches
Dikte sneeuw Niet beschikbaar.
UV 0 van de 12
Pollen Niet beschikbaar.
Luchtkwaliteit Niet beschikbaar.
Flu Activity Niet beschikbaar.
METAR ENVA 182120Z 09003KT 050V130 9999 FEW052 M01/M03 Q0983 RMK WIND 670FT 15008KT

More Conditions Fewer Conditions

Druk 29.03 inches
Zicht 6.2 mijlen
Wolken Gering 5200 ft
Gevoelstemperatuur 29 °F
Dauwpunt 17 °F
Vochtigheid 46%
Neerslag 0.00 inches
Dikte sneeuw Niet beschikbaar.
UV 0 van de 12
Pollen Niet beschikbaar.
Luchtkwaliteit Niet beschikbaar.
Flu Activity Niet beschikbaar.
METAR ENVA 182120Z 09003KT 050V130 9999 FEW052 M01/M03 Q0983 RMK WIND 670FT 15008KT

More Conditions Fewer Conditions

10-Day Weather Forecast

Almanac

Astronomie

Dec. 18, 2014 Opkomst Ondergang
Werkelijke tijd
Burgerlijke schemering
Nautische schemering
Astronomische schemering
Maan
Golflengte van het zichtbare licht
Daglengte
Tomorrow will be .
, % of the Moon is Illuminated

Extremen vandaag

Country Highs Country Lows

Community

WunderPhotos

Upload Photos

1,779,000 foto’s ge-upload!

WunderBlogs® & News

Nearby

Luchtkwaliteit

  Luchtkwaliteit LK-index Verontreinigende stof
Not available.

Dikte sneeuw

Station Depth Geometrische hoogte

Aardbevingen

Stad Distance Mag. Time & Date
Minimum magnitude displayed is 2.5.

Watertemperatuur langs de kust

Plaats Temperatuur

Nabije weerstations